Time;durP1;ratioP1;P1;durP2;ratioP2;P2;SDS_P1;SDS_P2;PMS_P1;PMS_P2;Temp;Humidity;BMP_temperature;BMP_pressure;BME280_temperature;BME280_humidity;BME280_pressure;Samples;Min_cycle;Max_cycle;Signal;HPM_P1;HPM_P2
2024/01/10 00:01:09;;;;;;;52.63;31.75;;;-1.90;95.00;;;;;;4934130;29;20225;-79
2024/01/10 00:03:36;;;;;;;50.72;32.28;;;-2.00;95.00;;;;;;4936035;29;20228;-79
2024/01/10 00:06:05;;;;;;;47.35;31.90;;;-2.00;95.00;;;;;;4934835;29;20232;-79
2024/01/10 00:08:32;;;;;;;49.00;30.73;;;-2.00;94.90;;;;;;4935035;29;20580;-78
2024/01/10 00:11:00;;;;;;;52.00;32.40;;;-2.00;94.90;;;;;;4915492;29;20683;-79
2024/01/10 00:13:28;;;;;;;48.78;33.60;;;-2.00;95.00;;;;;;4916383;29;20233;-77
2024/01/10 00:15:55;;;;;;;64.50;32.85;;;-2.00;94.90;;;;;;4916908;29;20225;-77
2024/01/10 00:18:22;;;;;;;53.47;32.55;;;-2.00;94.80;;;;;;4916388;29;20229;-77
2024/01/10 00:20:49;;;;;;;54.70;32.88;;;-2.00;94.90;;;;;;4916145;29;20236;-79
2024/01/10 00:23:18;;;;;;;57.08;34.50;;;-2.10;94.70;;;;;;4927865;29;20684;-77
2024/01/10 00:25:45;;;;;;;46.92;31.25;;;-2.10;94.90;;;;;;4916929;29;20300;-79
2024/01/10 00:28:12;;;;;;;42.17;29.10;;;-2.10;94.90;;;;;;4916971;29;20252;-78
2024/01/10 00:30:39;;;;;;;49.10;31.98;;;-2.20;94.90;;;;;;4904461;29;20230;-81
2024/01/10 00:33:07;;;;;;;53.85;32.17;;;-2.10;94.90;;;;;;4898074;29;20230;-79
2024/01/10 00:35:34;;;;;;;50.35;32.17;;;-2.10;95.00;;;;;;4897795;29;20230;-83
2024/01/10 00:38:02;;;;;;;52.35;35.65;;;-2.10;95.00;;;;;;4897884;29;20234;-83
2024/01/10 00:40:31;;;;;;;49.47;31.60;;;-2.20;95.00;;;;;;4897972;29;20285;-77
2024/01/10 00:42:58;;;;;;;59.13;32.85;;;-2.20;95.10;;;;;;4904533;29;20229;-79
2024/01/10 00:45:26;;;;;;;49.55;33.38;;;-2.10;95.20;;;;;;4915675;29;20222;-78
2024/01/10 00:47:53;;;;;;;45.60;33.30;;;-2.20;95.20;;;;;;4917310;29;20229;-83
2024/01/10 00:50:25;;;;;;;49.40;31.80;;;-2.10;95.40;;;;;;4913774;29;20289;-78
2024/01/10 00:52:59;;;;;;;55.88;36.33;;;-2.10;95.40;;;;;;4918069;29;20230;-83
2024/01/10 00:55:26;;;;;;;56.97;33.35;;;-2.20;95.30;;;;;;4922385;29;20223;-83
2024/01/10 00:57:55;;;;;;;55.55;36.20;;;-2.20;95.30;;;;;;4934248;29;20568;-81
2024/01/10 01:00:22;;;;;;;59.55;35.30;;;-2.10;95.30;;;;;;4919451;29;20229;-83
2024/01/10 01:02:50;;;;;;;54.10;33.30;;;-2.10;95.30;;;;;;4921735;29;20229;-80
2024/01/10 01:05:20;;;;;;;53.95;33.03;;;-2.10;95.20;;;;;;4920987;29;20547;-79
2024/01/10 01:07:47;;;;;;;49.13;31.35;;;-2.10;95.10;;;;;;4925874;29;20228;-82
2024/01/10 01:10:14;;;;;;;57.10;34.15;;;-2.00;95.00;;;;;;4924855;29;20700;-79
2024/01/10 01:12:41;;;;;;;53.97;33.97;;;-2.00;95.00;;;;;;4912389;29;20234;-80
2024/01/10 01:15:12;;;;;;;59.35;36.30;;;-2.10;94.70;;;;;;4922036;29;20226;-83
2024/01/10 01:17:39;;;;;;;59.35;33.92;;;-2.00;94.80;;;;;;4924144;29;20229;-83
2024/01/10 01:20:07;;;;;;;61.15;38.78;;;-2.00;94.70;;;;;;4926026;29;20716;-82
2024/01/10 01:22:37;;;;;;;62.15;35.75;;;-2.00;94.50;;;;;;4933845;29;20244;-80
2024/01/10 01:25:04;;;;;;;54.42;34.67;;;-2.00;94.60;;;;;;4953277;29;20256;-79
2024/01/10 01:27:31;;;;;;;69.25;36.63;;;-2.00;94.50;;;;;;4953895;29;20229;-80
2024/01/10 01:30:00;;;;;;;50.33;33.00;;;-2.00;94.20;;;;;;4957915;29;20227;-83
2024/01/10 01:32:28;;;;;;;53.30;36.05;;;-2.00;94.30;;;;;;4958747;29;20275;-81
2024/01/10 01:34:56;;;;;;;55.30;33.53;;;-2.00;94.30;;;;;;4949222;29;20244;-81
2024/01/10 01:37:25;;;;;;;54.95;36.45;;;-2.00;94.20;;;;;;4944924;29;20241;-82
2024/01/10 01:39:52;;;;;;;64.30;36.55;;;-2.00;94.20;;;;;;4939158;29;20227;-78
2024/01/10 01:42:19;;;;;;;61.00;35.47;;;-2.00;94.10;;;;;;4935697;29;20233;-82
2024/01/10 01:44:48;;;;;;;58.75;33.30;;;-2.00;93.90;;;;;;4928582;29;20307;-81
2024/01/10 01:47:18;;;;;;;61.80;35.58;;;-2.00;93.90;;;;;;4939695;29;20704;-82
2024/01/10 01:49:46;;;;;;;60.50;33.70;;;-2.00;93.90;;;;;;4913734;29;20570;-82
2024/01/10 01:52:14;;;;;;;60.25;33.05;;;-2.00;93.90;;;;;;4901148;29;20257;-78
2024/01/10 01:54:41;;;;;;;51.33;34.15;;;-2.00;93.90;;;;;;4906282;29;20221;-78
2024/01/10 01:57:09;;;;;;;60.40;33.60;;;-2.00;93.70;;;;;;4920118;29;20226;-82
2024/01/10 01:59:36;;;;;;;58.83;35.55;;;-2.00;94.00;;;;;;4925521;29;20239;-82
2024/01/10 02:02:05;;;;;;;53.80;31.75;;;-2.00;93.60;;;;;;4932998;29;20240;-82
2024/01/10 02:04:32;;;;;;;47.38;29.90;;;-2.00;93.50;;;;;;4920677;29;20232;-82
2024/01/10 02:09:49;;;;;;;51.35;31.90;;;-2.10;93.40;;;;;;4915130;29;20277;-79
2024/01/10 02:12:16;;;;;;;47.80;32.30;;;-2.00;93.40;;;;;;4919402;29;20575;-79
2024/01/10 02:14:44;;;;;;;48.25;33.58;;;-2.00;93.20;;;;;;4918170;29;20225;-78
2024/01/10 02:17:11;;;;;;;46.38;30.38;;;-2.00;93.20;;;;;;4919835;29;20225;-78
2024/01/10 02:19:38;;;;;;;54.65;32.78;;;-2.00;93.20;;;;;;4918525;29;20240;-82
2024/01/10 02:22:07;;;;;;;50.40;32.90;;;-2.00;93.30;;;;;;4918337;29;20719;-82
2024/01/10 02:24:34;;;;;;;50.03;30.45;;;-2.00;93.20;;;;;;4912464;29;20230;-78
2024/01/10 02:27:03;;;;;;;58.53;33.60;;;-2.00;93.20;;;;;;4917836;29;20229;-78
2024/01/10 02:29:31;;;;;;;48.22;32.78;;;-2.00;93.00;;;;;;4931422;29;20791;-81
2024/01/10 02:32:00;;;;;;;46.92;29.23;;;-2.00;92.90;;;;;;4936797;29;20225;-82
2024/01/10 02:34:27;;;;;;;49.97;28.52;;;-1.90;93.00;;;;;;4938831;29;20229;-82
2024/01/10 02:36:53;;;;;;;47.72;31.30;;;-1.90;92.90;;;;;;4937155;29;20261;-82
2024/01/10 02:39:21;;;;;;;47.85;30.98;;;-1.90;92.70;;;;;;4938274;29;20734;-78
2024/01/10 02:41:47;;;;;;;47.78;32.13;;;-1.90;92.60;;;;;;4938566;29;20265;-82
2024/01/10 02:44:17;;;;;;;50.25;31.95;;;-1.80;92.70;;;;;;4918561;29;20225;-82
2024/01/10 02:46:44;;;;;;;44.85;30.92;;;-1.80;92.60;;;;;;4917629;29;20284;-82
2024/01/10 02:49:11;;;;;;;52.45;33.78;;;-1.80;92.70;;;;;;4918613;29;20736;-78
2024/01/10 02:51:38;;;;;;;48.20;31.17;;;-1.80;92.90;;;;;;4918094;29;20660;-78
2024/01/10 02:54:05;;;;;;;52.63;31.73;;;-1.80;93.10;;;;;;4917613;29;20229;-78
2024/01/10 02:56:32;;;;;;;52.15;31.83;;;-1.90;93.40;;;;;;4918052;29;20233;-78
2024/01/10 02:58:59;;;;;;;50.53;34.47;;;-1.90;93.70;;;;;;4917917;29;20668;-78
2024/01/10 03:01:28;;;;;;;53.90;33.75;;;-1.90;93.80;;;;;;4918089;29;20240;-78
2024/01/10 03:03:55;;;;;;;61.38;34.75;;;-1.90;93.90;;;;;;4917610;29;20261;-78
2024/01/10 03:06:22;;;;;;;51.20;33.63;;;-1.90;94.00;;;;;;4918221;29;20229;-79
2024/01/10 03:08:49;;;;;;;55.08;35.78;;;-2.00;94.00;;;;;;4918684;29;20233;-82
2024/01/10 03:11:16;;;;;;;56.88;34.05;;;-2.00;94.10;;;;;;4917829;29;20711;-82
2024/01/10 03:13:46;;;;;;;52.92;33.25;;;-2.00;94.10;;;;;;4916833;29;20683;-82
2024/01/10 03:16:14;;;;;;;55.67;35.00;;;-2.10;94.00;;;;;;4917844;29;20225;-82
2024/01/10 03:18:42;;;;;;;53.33;33.10;;;-2.20;94.00;;;;;;4917891;29;20229;-82
2024/01/10 03:21:09;;;;;;;47.13;34.63;;;-2.30;94.10;;;;;;4917491;29;20228;-82
2024/01/10 03:23:36;;;;;;;54.45;32.15;;;-2.30;94.30;;;;;;4917697;29;20233;-78
2024/01/10 03:26:03;;;;;;;58.15;35.55;;;-2.40;94.30;;;;;;4917384;29;20229;-82
2024/01/10 03:28:30;;;;;;;55.47;35.17;;;-2.40;94.40;;;;;;4917113;29;20229;-82
2024/01/10 03:30:57;;;;;;;57.17;35.55;;;-2.40;94.60;;;;;;4916241;29;20229;-82
2024/01/10 03:33:24;;;;;;;54.75;37.00;;;-2.40;94.70;;;;;;4917746;29;20671;-78
2024/01/10 03:35:55;;;;;;;53.08;34.42;;;-2.40;94.80;;;;;;4916069;29;20233;-78
2024/01/10 03:38:22;;;;;;;57.20;35.40;;;-2.50;94.70;;;;;;4917402;29;20244;-78
2024/01/10 03:40:49;;;;;;;55.22;31.98;;;-2.50;94.60;;;;;;4916499;29;20288;-78
2024/01/10 03:43:16;;;;;;;56.42;37.08;;;-2.60;94.80;;;;;;4916739;29;20240;-78
2024/01/10 03:45:43;;;;;;;57.65;34.78;;;-2.60;95.00;;;;;;4917589;29;20221;-82
2024/01/10 03:48:10;;;;;;;48.55;32.38;;;-2.50;95.10;;;;;;4917966;29;20343;-78
2024/01/10 03:50:38;;;;;;;59.25;37.90;;;-2.50;95.20;;;;;;4917487;29;20233;-82
2024/01/10 03:53:06;;;;;;;64.85;35.40;;;-2.50;95.10;;;;;;4906831;29;20249;-82
2024/01/10 03:55:34;;;;;;;50.10;34.25;;;-2.50;95.20;;;;;;4916981;29;20225;-78
2024/01/10 03:58:07;;;;;;;54.20;35.25;;;-2.50;95.20;;;;;;4909443;29;20238;-82
2024/01/10 04:00:34;;;;;;;50.70;33.35;;;-2.50;95.00;;;;;;4917426;29;20237;-78
2024/01/10 04:03:01;;;;;;;53.13;34.78;;;-2.50;95.00;;;;;;4916855;29;20272;-78
2024/01/10 04:05:29;;;;;;;56.78;35.72;;;-2.50;95.00;;;;;;4917555;29;20261;-78
2024/01/10 04:07:56;;;;;;;54.25;36.20;;;-2.50;94.90;;;;;;4920359;29;20237;-82
2024/01/10 04:10:27;;;;;;;58.20;36.15;;;-2.50;94.70;;;;;;4932664;29;20253;-78
2024/01/10 04:12:54;;;;;;;55.83;34.45;;;-2.50;94.80;;;;;;4937900;29;20233;-81
2024/01/10 04:15:21;;;;;;;58.85;36.83;;;-2.50;94.80;;;;;;4938871;29;20221;-82
2024/01/10 04:17:48;;;;;;;66.15;36.55;;;-2.50;94.60;;;;;;4931788;29;20229;-82
2024/01/10 04:20:15;;;;;;;59.47;35.28;;;-2.50;94.40;;;;;;4917404;29;20296;-78
2024/01/10 04:22:42;;;;;;;58.25;35.00;;;-2.50;94.20;;;;;;4918267;29;20225;-82
2024/01/10 04:25:09;;;;;;;53.70;33.15;;;-2.50;94.10;;;;;;4920481;29;20571;-78
2024/01/10 04:27:37;;;;;;;58.13;32.67;;;-2.50;94.20;;;;;;4920605;29;20225;-78
2024/01/10 04:30:06;;;;;;;56.10;32.92;;;-2.50;94.30;;;;;;4920542;29;20574;-78
2024/01/10 04:32:33;;;;;;;51.92;33.75;;;-2.50;94.40;;;;;;4920977;29;20233;-82
2024/01/10 04:35:00;;;;;;;57.88;35.25;;;-2.50;94.40;;;;;;4920101;29;20225;-82
2024/01/10 04:37:27;;;;;;;52.35;37.50;;;-2.50;94.40;;;;;;4921238;29;20551;-82
2024/01/10 04:39:54;;;;;;;63.40;36.20;;;-2.50;94.40;;;;;;4920791;29;20226;-82
2024/01/10 04:42:21;;;;;;;59.50;33.40;;;-2.50;94.30;;;;;;4919457;29;20229;-82
2024/01/10 04:44:50;;;;;;;54.92;32.58;;;-2.50;94.30;;;;;;4920924;29;20221;-82
2024/01/10 04:47:17;;;;;;;59.33;35.92;;;-2.50;94.30;;;;;;4919497;29;20226;-82
2024/01/10 04:49:44;;;;;;;49.63;32.72;;;-2.50;94.30;;;;;;4920269;29;20236;-82
2024/01/10 04:52:12;;;;;;;49.58;32.53;;;-2.50;94.40;;;;;;4919915;29;20237;-78
2024/01/10 04:54:40;;;;;;;59.35;32.38;;;-2.50;94.30;;;;;;4920249;29;20233;-82
2024/01/10 04:57:07;;;;;;;50.40;33.20;;;-2.50;94.20;;;;;;4919566;29;20280;-81
2024/01/10 04:59:34;;;;;;;48.45;33.63;;;-2.40;94.20;;;;;;4920946;29;20239;-82
2024/01/10 05:02:06;;;;;;;49.85;31.88;;;-2.40;94.10;;;;;;4919886;29;20229;-79
2024/01/10 05:04:33;;;;;;;52.60;33.15;;;-2.40;94.10;;;;;;4919722;29;20229;-78
2024/01/10 05:07:11;;;;;;;52.25;34.47;;;-2.30;94.20;;;;;;4919883;29;20230;-77
2024/01/10 05:09:38;;;;;;;58.53;34.47;;;-2.30;94.20;;;;;;4920057;29;20312;-78
2024/01/10 05:12:06;;;;;;;54.00;34.72;;;-2.30;94.50;;;;;;4918892;29;20261;-78
2024/01/10 05:14:33;;;;;;;59.72;36.45;;;-2.20;94.30;;;;;;4920244;29;20241;-82
2024/01/10 05:17:01;;;;;;;62.90;37.85;;;-2.20;94.40;;;;;;4919507;29;20233;-78
2024/01/10 05:19:29;;;;;;;63.67;35.97;;;-2.30;94.40;;;;;;4919786;29;20221;-82
2024/01/10 05:21:57;;;;;;;67.88;39.13;;;-2.30;94.50;;;;;;4919135;29;20225;-82
2024/01/10 05:24:24;;;;;;;54.20;35.80;;;-2.30;94.60;;;;;;4919058;29;20545;-82
2024/01/10 05:26:51;;;;;;;66.63;36.10;;;-2.20;94.60;;;;;;4919290;29;20810;-82
2024/01/10 05:29:19;;;;;;;58.70;36.97;;;-2.20;94.60;;;;;;4919718;29;20225;-82
2024/01/10 05:31:47;;;;;;;54.60;33.13;;;-2.20;94.40;;;;;;4919545;29;20233;-82
2024/01/10 05:34:16;;;;;;;60.40;37.28;;;-2.30;94.40;;;;;;4919751;29;20253;-82
2024/01/10 05:36:43;;;;;;;59.17;35.28;;;-2.30;94.30;;;;;;4918702;29;20233;-82
2024/01/10 05:39:10;;;;;;;56.08;34.55;;;-2.30;94.30;;;;;;4919145;29;20221;-82
2024/01/10 05:41:39;;;;;;;53.75;35.65;;;-2.40;94.20;;;;;;4919454;29;20691;-82
2024/01/10 05:44:06;;;;;;;62.83;36.08;;;-2.40;94.70;;;;;;4930853;29;20296;-82
2024/01/10 05:46:33;;;;;;;55.45;33.97;;;-2.40;94.40;;;;;;4938549;29;20228;-78
2024/01/10 05:49:00;;;;;;;57.38;35.40;;;-2.40;94.20;;;;;;4937927;29;20244;-78
2024/01/10 05:51:29;;;;;;;59.47;37.58;;;-2.40;94.10;;;;;;4937736;29;20236;-81
2024/01/10 05:53:56;;;;;;;62.78;35.67;;;-2.50;94.00;;;;;;4937666;29;20232;-81
2024/01/10 05:56:23;;;;;;;53.22;32.30;;;-2.50;94.10;;;;;;4938343;29;20251;-82
2024/01/10 05:58:50;;;;;;;57.25;34.55;;;-2.50;94.10;;;;;;4938310;29;20229;-77
2024/01/10 06:01:18;;;;;;;56.15;34.05;;;-2.50;94.20;;;;;;4938350;29;20324;-82
2024/01/10 06:03:45;;;;;;;55.88;34.30;;;-2.50;94.20;;;;;;4938292;29;20240;-82
2024/01/10 06:06:12;;;;;;;50.90;32.25;;;-2.50;94.10;;;;;;4937881;29;20678;-82
2024/01/10 06:08:40;;;;;;;57.45;35.53;;;-2.50;94.10;;;;;;4938085;29;20240;-82
2024/01/10 06:11:09;;;;;;;62.78;36.78;;;-2.40;94.20;;;;;;4937846;29;20255;-82
2024/01/10 06:13:36;;;;;;;57.78;35.38;;;-2.40;94.20;;;;;;4938430;29;20241;-82
2024/01/10 06:16:03;;;;;;;58.33;32.53;;;-2.40;94.20;;;;;;4938241;29;20646;-81
2024/01/10 06:18:30;;;;;;;52.92;34.40;;;-2.40;94.20;;;;;;4938321;29;20224;-78
2024/01/10 06:20:57;;;;;;;54.58;34.42;;;-2.30;94.10;;;;;;4932083;29;20221;-78
2024/01/10 06:23:25;;;;;;;52.80;32.13;;;-2.30;94.10;;;;;;4934077;29;20221;-78
2024/01/10 06:25:54;;;;;;;62.78;35.63;;;-2.20;94.10;;;;;;4940277;29;20217;-78
2024/01/10 06:28:23;;;;;;;51.85;32.83;;;-2.20;93.70;;;;;;4940006;29;20220;-79
2024/01/10 06:30:50;;;;;;;55.72;35.22;;;-2.20;93.60;;;;;;4931868;29;20238;-78
2024/01/10 06:33:17;;;;;;;51.00;30.10;;;-2.20;93.30;;;;;;4919853;29;20320;-81
2024/01/10 06:35:44;;;;;;;50.75;32.78;;;-2.20;93.20;;;;;;4918665;29;20249;-82
2024/01/10 06:38:11;;;;;;;56.17;31.27;;;-2.10;93.30;;;;;;4907104;29;20232;-81
2024/01/10 06:40:38;;;;;;;56.63;34.30;;;-2.10;93.30;;;;;;4917967;29;20571;-82
2024/01/10 06:43:08;;;;;;;51.72;33.28;;;-2.10;93.10;;;;;;4911977;29;20312;-81
2024/01/10 06:45:35;;;;;;;54.70;34.25;;;-2.10;93.20;;;;;;4937120;29;20221;-82
2024/01/10 06:48:02;;;;;;;53.45;33.22;;;-2.10;93.10;;;;;;4937346;29;20312;-82
2024/01/10 06:50:30;;;;;;;64.28;36.85;;;-2.10;93.00;;;;;;4936556;29;20225;-81
2024/01/10 06:52:57;;;;;;;43.72;30.02;;;-2.10;93.00;;;;;;5016844;23;20612;-82
2024/01/10 06:55:25;;;;;;;60.10;35.83;;;-2.10;93.00;;;;;;4936150;29;20251;-82
2024/01/10 06:57:54;;;;;;;56.88;35.50;;;-2.10;93.20;;;;;;4936702;29;20225;-82
2024/01/10 07:00:26;;;;;;;55.50;32.60;;;-2.00;93.30;;;;;;4936963;29;20228;-82
2024/01/10 07:02:56;;;;;;;52.15;31.35;;;-2.00;93.20;;;;;;4936434;29;20243;-81
2024/01/10 07:05:23;;;;;;;52.47;33.78;;;-2.00;93.10;;;;;;4936988;29;20682;-82
2024/01/10 07:07:50;;;;;;;58.08;30.88;;;-1.90;93.00;;;;;;4936359;29;20228;-82
2024/01/10 07:10:17;;;;;;;54.53;32.80;;;-1.90;92.90;;;;;;4936118;29;20232;-82
2024/01/10 07:12:44;;;;;;;57.83;34.53;;;-1.90;92.90;;;;;;4936665;29;20256;-82
2024/01/10 07:15:11;;;;;;;61.33;33.10;;;-1.90;92.80;;;;;;4936030;29;20224;-82
2024/01/10 07:17:40;;;;;;;64.65;36.47;;;-1.90;92.80;;;;;;4936421;29;20248;-82
2024/01/10 07:20:11;;;;;;;51.22;33.15;;;-2.00;92.90;;;;;;4936101;29;20237;-82
2024/01/10 07:22:41;;;;;;;48.72;33.72;;;-2.00;93.00;;;;;;4936575;29;20243;-82
2024/01/10 07:25:08;;;;;;;51.05;33.42;;;-2.00;93.00;;;;;;4936220;29;20225;-82
2024/01/10 07:27:37;;;;;;;58.13;35.22;;;-2.00;93.00;;;;;;4936606;29;20260;-81
2024/01/10 07:30:05;;;;;;;52.13;34.15;;;-2.00;93.00;;;;;;4935880;29;20259;-83
2024/01/10 07:32:32;;;;;;;61.60;33.67;;;-2.00;93.10;;;;;;4936350;29;20243;-82
2024/01/10 07:35:00;;;;;;;55.38;34.10;;;-2.00;93.20;;;;;;4935639;29;20236;-82
2024/01/10 07:37:27;;;;;;;50.25;32.33;;;-2.00;93.00;;;;;;4936468;29;20758;-82
2024/01/10 07:39:57;;;;;;;51.80;32.90;;;-2.00;93.10;;;;;;4936079;29;20241;-82
2024/01/10 07:42:24;;;;;;;48.13;32.13;;;-2.00;93.10;;;;;;4936393;29;20228;-82
2024/01/10 07:44:52;;;;;;;48.65;33.53;;;-1.90;93.10;;;;;;4953774;28;20232;-82
2024/01/10 07:47:20;;;;;;;52.97;32.63;;;-1.90;93.20;;;;;;4955187;28;20232;-82
2024/01/10 07:49:47;;;;;;;57.58;32.90;;;-1.90;93.20;;;;;;4955356;28;20243;-78
2024/01/10 07:52:16;;;;;;;51.90;32.13;;;-1.80;93.20;;;;;;4954534;28;20239;-78
2024/01/10 07:54:43;;;;;;;56.15;32.58;;;-1.80;93.30;;;;;;4955468;28;20783;-78
2024/01/10 07:57:14;;;;;;;62.55;38.67;;;-1.70;93.20;;;;;;4953254;28;20232;-78
2024/01/10 07:59:41;;;;;;;47.35;30.77;;;-1.70;93.10;;;;;;4924922;29;20231;-78
2024/01/10 08:02:10;;;;;;;50.80;33.00;;;-1.60;93.00;;;;;;4935572;29;20228;-78
2024/01/10 08:04:37;;;;;;;53.45;35.15;;;-1.60;92.60;;;;;;4936207;29;20284;-78
2024/01/10 08:07:04;;;;;;;53.38;33.55;;;-1.60;92.60;;;;;;4935582;29;20225;-79
2024/01/10 08:09:32;;;;;;;54.75;33.33;;;-1.60;92.40;;;;;;4936355;29;20227;-78
2024/01/10 08:11:59;;;;;;;58.00;33.78;;;-1.60;92.40;;;;;;4935598;29;20714;-78
2024/01/10 08:14:26;;;;;;;58.35;34.67;;;-1.50;92.30;;;;;;4935931;29;20228;-78
2024/01/10 08:16:54;;;;;;;51.67;33.90;;;-1.40;92.30;;;;;;4936150;29;20244;-78
2024/01/10 08:19:21;;;;;;;64.55;38.53;;;-1.40;92.20;;;;;;4935274;29;20316;-78
2024/01/10 08:21:48;;;;;;;53.83;34.58;;;-1.40;92.10;;;;;;4935558;29;20224;-78
2024/01/10 08:24:15;;;;;;;55.95;36.85;;;-1.40;92.00;;;;;;4935313;29;20233;-78
2024/01/10 08:26:44;;;;;;;55.67;34.70;;;-1.40;92.10;;;;;;4935982;29;20710;-78
2024/01/10 08:29:11;;;;;;;53.38;37.65;;;-1.40;92.10;;;;;;4935279;29;20276;-77
2024/01/10 08:31:38;;;;;;;51.30;33.95;;;-1.30;92.20;;;;;;4936119;29;20662;-78
2024/01/10 08:34:05;;;;;;;52.35;34.47;;;-1.40;91.70;;;;;;4935112;29;20547;-78
2024/01/10 08:36:32;;;;;;;52.55;31.70;;;-1.40;91.40;;;;;;4936010;29;20247;-78
2024/01/10 08:39:00;;;;;;;53.65;32.88;;;-1.40;91.40;;;;;;4936093;29;20224;-78
2024/01/10 08:42:01;;;;;;;64.05;34.00;;;-1.30;91.60;;;;;;4935826;29;20663;-78
2024/01/10 08:44:30;;;;;;;52.10;38.85;;;-1.40;91.30;;;;;;4948465;28;20298;-78
2024/01/10 08:46:57;;;;;;;61.95;36.15;;;-1.30;91.50;;;;;;4955800;28;20236;-78
2024/01/10 08:49:23;;;;;;;58.95;33.15;;;-1.30;91.50;;;;;;4954589;28;20228;-78
2024/01/10 08:51:50;;;;;;;57.15;34.42;;;-1.30;91.40;;;;;;4955462;28;20254;-78
2024/01/10 08:54:19;;;;;;;54.55;34.45;;;-1.30;91.10;;;;;;4959799;28;20213;-79
2024/01/10 08:56:46;;;;;;;55.45;33.55;;;-1.40;90.60;;;;;;4976629;28;20200;-78
2024/01/10 08:59:13;;;;;;;54.22;35.50;;;-1.40;90.80;;;;;;4975112;28;20204;-79
2024/01/10 09:01:43;;;;;;;51.20;32.75;;;-1.40;90.80;;;;;;4975725;28;20212;-79
2024/01/10 09:04:10;;;;;;;59.10;36.67;;;-1.30;91.10;;;;;;4961714;28;20225;-78
2024/01/10 09:06:37;;;;;;;58.42;37.00;;;-1.30;91.20;;;;;;4955230;28;20255;-79
2024/01/10 09:09:04;;;;;;;54.80;32.90;;;-1.30;91.30;;;;;;4955517;28;20678;-79
2024/01/10 09:11:31;;;;;;;58.88;36.03;;;-1.30;91.30;;;;;;4957058;28;20224;-78
2024/01/10 09:13:59;;;;;;;60.85;35.45;;;-1.30;90.90;;;;;;4957922;28;20252;-78
2024/01/10 09:16:26;;;;;;;54.42;34.45;;;-1.30;91.00;;;;;;4957707;28;20306;-82
2024/01/10 09:18:58;;;;;;;56.92;36.67;;;-1.20;91.20;;;;;;4958073;28;20252;-82
2024/01/10 09:21:27;;;;;;;67.38;37.30;;;-1.20;91.40;;;;;;4957216;28;20234;-82
2024/01/10 09:23:55;;;;;;;55.15;35.00;;;-1.10;91.50;;;;;;4957894;28;20229;-82
2024/01/10 09:26:22;;;;;;;58.67;39.67;;;-1.10;91.60;;;;;;4957499;28;20255;-78
2024/01/10 09:28:49;;;;;;;65.03;36.67;;;-1.10;91.50;;;;;;4958488;28;20235;-78
2024/01/10 09:31:16;;;;;;;60.33;37.28;;;-1.10;91.50;;;;;;4956965;28;20228;-78
2024/01/10 09:33:44;;;;;;;59.75;38.35;;;-1.00;91.70;;;;;;4952887;28;20229;-79
2024/01/10 09:36:12;;;;;;;62.55;37.83;;;-0.90;91.90;;;;;;4937937;29;20246;-79
2024/01/10 09:38:39;;;;;;;53.90;35.53;;;-0.90;91.90;;;;;;4938558;29;20229;-78
2024/01/10 09:41:06;;;;;;;53.95;35.67;;;-0.90;92.00;;;;;;4938477;29;20228;-77
2024/01/10 09:43:34;;;;;;;57.42;37.35;;;-0.80;91.90;;;;;;4945380;28;20690;-79
2024/01/10 09:46:05;;;;;;;59.80;36.38;;;-0.70;91.90;;;;;;4957569;28;20251;-78
2024/01/10 09:48:33;;;;;;;63.42;39.17;;;-0.70;91.80;;;;;;4957042;28;20220;-77
2024/01/10 09:51:00;;;;;;;63.95;40.25;;;-0.70;91.80;;;;;;4957362;28;20231;-77
2024/01/10 09:53:30;;;;;;;63.25;39.20;;;-0.60;92.00;;;;;;4957363;28;20307;-77
2024/01/10 09:55:59;;;;;;;59.25;41.25;;;-0.60;92.00;;;;;;4958499;28;20290;-79
2024/01/10 09:58:27;;;;;;;62.78;39.47;;;-0.60;92.10;;;;;;4959812;28;20323;-77
2024/01/10 10:00:54;;;;;;;64.07;41.30;;;-0.50;92.30;;;;;;4960358;28;20286;-81
2024/01/10 10:03:21;;;;;;;67.05;42.42;;;-0.50;92.40;;;;;;4957276;28;20231;-77
2024/01/10 10:05:48;;;;;;;67.28;42.42;;;-0.50;92.60;;;;;;4957176;28;20243;-77
2024/01/10 10:08:21;;;;;;;70.47;40.83;;;-0.50;92.60;;;;;;4956876;28;20278;-77
2024/01/10 10:10:51;;;;;;;63.85;41.30;;;-0.40;92.80;;;;;;4955929;28;20362;-77
2024/01/10 10:13:27;;;;;;;72.85;41.85;;;-0.40;93.00;;;;;;4937819;29;20567;-79
2024/01/10 10:16:00;;;;;;;66.20;40.25;;;-0.50;92.90;;;;;;4937486;29;20578;-77
2024/01/10 10:18:27;;;;;;;61.90;40.47;;;-0.40;93.20;;;;;;4937829;29;20288;-79
2024/01/10 10:21:09;;;;;;;61.97;38.50;;;-0.40;93.00;;;;;;4937072;29;20228;-79
2024/01/10 10:23:36;;;;;;;54.53;35.50;;;-0.40;92.70;;;;;;4937938;29;20267;-78
2024/01/10 10:26:19;;;;;;;55.90;35.45;;;-0.40;92.50;;;;;;4937187;29;20239;-79
2024/01/10 10:28:46;;;;;;;47.90;32.55;;;-0.40;92.20;;;;;;4937698;29;20233;-78
2024/01/10 10:31:13;;;;;;;50.28;29.63;;;-0.30;91.60;;;;;;4937159;29;20292;-78
2024/01/10 10:33:40;;;;;;;49.55;28.95;;;-0.30;90.80;;;;;;4937530;29;20232;-79
2024/01/10 10:36:07;;;;;;;59.40;32.22;;;-0.40;89.60;;;;;;4936833;29;20257;-78
2024/01/10 10:38:34;;;;;;;45.22;30.65;;;-0.30;89.30;;;;;;4937469;29;20679;-79
2024/01/10 10:41:02;;;;;;;47.70;30.20;;;-0.30;89.70;;;;;;4937042;29;20568;-79
2024/01/10 10:43:40;;;;;;;42.30;26.70;;;-0.20;90.00;;;;;;4944169;28;20239;-79
2024/01/10 10:46:09;;;;;;;46.63;30.33;;;-0.20;90.10;;;;;;4955834;28;20231;-79
2024/01/10 10:48:37;;;;;;;47.22;30.38;;;-0.10;90.10;;;;;;4956576;28;20574;-79
2024/01/10 10:51:09;;;;;;;56.38;31.30;;;-0.10;90.20;;;;;;4955785;28;20228;-82
2024/01/10 10:53:38;;;;;;;37.63;27.80;;;0.00;90.20;;;;;;4956012;28;20228;-82
2024/01/10 10:56:07;;;;;;;56.40;27.85;;;-0.10;87.40;;;;;;4956065;28;20678;-82
2024/01/10 10:58:37;;;;;;;47.58;28.70;;;0.10;88.40;;;;;;4956361;28;20231;-82
2024/01/10 11:01:06;;;;;;;39.78;25.42;;;0.10;88.30;;;;;;4955474;28;20549;-82
2024/01/10 11:03:36;;;;;;;36.63;24.95;;;0.10;87.20;;;;;;4956314;28;20228;-79
2024/01/10 11:06:05;;;;;;;38.83;25.77;;;0.20;87.30;;;;;;4955689;28;20228;-78
2024/01/10 11:08:36;;;;;;;40.92;24.85;;;0.30;86.40;;;;;;4955957;28;20230;-79
2024/01/10 11:11:07;;;;;;;39.47;26.02;;;0.40;85.60;;;;;;4952273;28;20221;-79
2024/01/10 11:13:58;;;;;;;41.55;24.05;;;0.40;85.10;;;;;;4936958;29;20260;-79
2024/01/10 11:16:50;;;;;;;42.92;25.17;;;0.50;85.20;;;;;;4936778;29;20244;-78
2024/01/10 11:19:55;;;;;;;37.70;24.63;;;0.60;84.80;;;;;;4936464;29;20236;-79
2024/01/10 11:22:40;;;;;;;38.22;21.73;;;0.60;83.40;;;;;;4937073;29;20577;-82
2024/01/10 11:25:07;;;;;;;44.95;22.48;;;0.70;83.20;;;;;;4937700;29;20248;-80
2024/01/10 11:27:34;;;;;;;31.92;22.27;;;0.70;82.80;;;;;;4940488;29;20558;-78
2024/01/10 11:30:04;;;;;;;32.95;22.63;;;0.70;82.00;;;;;;4955848;29;20224;-81
2024/01/10 11:32:33;;;;;;;41.65;25.35;;;0.80;81.50;;;;;;4957678;29;20272;-81
2024/01/10 11:35:01;;;;;;;39.90;22.55;;;0.80;80.80;;;;;;4957550;29;20255;-78
2024/01/10 11:37:39;;;;;;;38.47;23.23;;;0.70;80.10;;;;;;4956521;28;20986;-81
2024/01/10 11:40:09;;;;;;;32.17;22.35;;;0.70;79.50;;;;;;4941820;29;20248;-82
2024/01/10 11:42:42;;;;;;;38.42;20.65;;;0.70;79.80;;;;;;4938323;29;20345;-81
2024/01/10 11:45:11;;;;;;;32.83;20.77;;;0.80;80.50;;;;;;4956080;28;20228;-81
2024/01/10 11:47:40;;;;;;;30.60;21.48;;;0.90;80.90;;;;;;4955272;28;20223;-81
2024/01/10 11:50:09;;;;;;;33.08;20.88;;;1.00;80.60;;;;;;4942124;28;20225;-82
2024/01/10 11:52:38;;;;;;;29.70;20.88;;;0.90;79.30;;;;;;4935844;29;20229;-82
2024/01/10 11:55:07;;;;;;;34.17;21.33;;;1.00;79.70;;;;;;4936159;29;20341;-81
2024/01/10 11:57:34;;;;;;;32.53;20.50;;;1.00;79.80;;;;;;4935744;29;21126;-81
2024/01/10 12:00:03;;;;;;;31.13;19.80;;;1.00;79.50;;;;;;4936417;29;20606;-78
2024/01/10 12:02:32;;;;;;;37.17;21.33;;;1.10;79.90;;;;;;4935402;29;20233;-78
2024/01/10 12:04:59;;;;;;;28.73;21.13;;;1.10;80.40;;;;;;4936019;29;20570;-78
2024/01/10 12:07:27;;;;;;;34.40;22.33;;;1.20;81.10;;;;;;4935439;29;20228;-78
2024/01/10 12:09:54;;;;;;;43.58;27.83;;;1.30;81.90;;;;;;4935973;29;20235;-81
2024/01/10 12:12:21;;;;;;;34.05;24.10;;;1.30;82.80;;;;;;4935193;29;20232;-78
2024/01/10 12:14:48;;;;;;;39.08;27.25;;;1.30;83.00;;;;;;4936320;29;20241;-81
2024/01/10 12:17:16;;;;;;;37.65;25.77;;;1.40;83.90;;;;;;4935952;29;20228;-78
2024/01/10 12:19:44;;;;;;;45.47;25.38;;;1.40;83.50;;;;;;4935309;29;20220;-78
2024/01/10 12:22:11;;;;;;;44.63;26.83;;;1.50;83.70;;;;;;4936037;29;20229;-78
2024/01/10 12:24:46;;;;;;;36.65;24.35;;;1.50;83.80;;;;;;4935329;29;20228;-77
2024/01/10 12:27:12;;;;;;;42.80;25.85;;;1.40;83.00;;;;;;4936166;29;20227;-81
2024/01/10 12:29:44;;;;;;;36.53;25.33;;;1.40;82.90;;;;;;4935596;29;20248;-78
2024/01/10 12:32:11;;;;;;;34.42;24.23;;;1.40;83.10;;;;;;4936004;29;20477;-78
2024/01/10 12:34:40;;;;;;;39.47;25.35;;;1.50;83.40;;;;;;4935525;29;20577;-78
2024/01/10 12:37:08;;;;;;;34.63;23.25;;;1.50;83.70;;;;;;4936008;29;20303;-78